• Join FlightAware (Why Join?)
  • Login
  • US Flag 
04:15PM EDT


 

Airport Tracker/Info


-or-


 

Live Flight TrackerFlight Track Log ✈ SWA554 ✈ 12-Apr-2013 ✈ KMKE - KBWI

Flight Track Log - Related Links

Times and Time Zones

All times are in EDT time to prevent confusion due to time zone crossing. See the SWA554 flight status page for this flight to view local times or setup timezone preferences in your user account.

Time Position Orientation Groundspeed Altitude Reporting Facility
EDT Latitude Longitude Course Direction KTS MPH feet Rate Location/Type
02:42PM 42.8497 -87.8636 162° South 214 246 4,500  Level Chicago Center
02:43PM 42.7783 -87.8317 162° South 260 299 6,900 2,640 Climbing Chicago Center
02:44PM 42.6997 -87.8117 169° South 281 323 10,000 3,120 Climbing Chicago Center
02:45PM 42.6169 -87.7947 171° South 295 339 13,500 3,300 Climbing Chicago Center
02:46PM 42.5314 -87.7664 166° South 314 361 16,900 3,000 Climbing Chicago Center
02:48PM 42.4322 -87.7100 157° South 354 407 19,800 2,520 Climbing Chicago Center
02:49PM 42.3358 -87.6575 158° South 370 426 22,200 2,460 Climbing Chicago Center
02:50PM 42.2325 -87.6022 158° South 393 452 24,900 2,460 Climbing Chicago Center
02:51PM 42.1278 -87.5447 158° South 403 464 27,300 2,160 Climbing Chicago Center
02:52PM 42.0056 -87.4517 150° Southeast 427 491 29,400 1,920 Climbing Chicago Center
02:53PM 41.9769 -87.2875 103° East 462 532 31,300 1,560 Climbing Chicago Center
02:54PM 41.9753 -87.1103 91° East 472 543 32,700 1,260 Climbing Chicago Center
02:55PM 41.9711 -86.9281 92° East 484 557 34,000 1,200 Climbing Chicago Center
02:56PM 41.9672 -86.7433 92° East 493 567 35,200 1,200 Climbing Chicago Center
02:57PM 41.9639 -86.5525 91° East 501 577 36,500 1,200 Climbing Chicago Center
02:58PM 41.9600 -86.3647 92° East 503 579 37,800 1,200 Climbing Chicago Center
02:59PM 41.9425 -86.1456 96° East 491 565 39,000 540 Climbing Chicago Center
03:00PM 41.9067 -85.9689 105° East 490 564 39,000  Level Chicago Center
03:01PM 41.8722 -85.7931 105° East 488 562 39,000  Level Chicago Center
03:02PM 41.8367 -85.6164 105° East 488 562 39,000  Level Chicago Center
03:03PM 41.8008 -85.4378 105° East 489 563 39,000  Level Chicago Center
03:04PM 41.7644 -85.2592 105° East 486 559 39,000  Level Chicago Center
03:05PM 41.7389 -85.1169 103° East 498 573 39,000  Level Cleveland Center
03:06PM 41.7017 -84.9444 106° East 498 573 39,000  Level Cleveland Center
03:07PM 41.6672 -84.7503 103° East 492 566 39,000  Level Cleveland Center
03:08PM 41.6572 -84.5689 94° East 487 560 39,000  Level Cleveland Center
03:09PM 41.6086 -84.4019 111° Southeast 482 555 39,000  Level Cleveland Center
03:09PM 41.5842 -84.3497 122° Southeast 483 556 39,000  Level Chicago Center
03:10PM 41.5469 -84.2431 115° Southeast 476 548 39,000  Level Cleveland Center
03:11PM 41.4853 -84.0869 118° Southeast 476 548 39,000  Level Cleveland Center
03:12PM 41.4233 -83.9286 118° Southeast 482 555 39,000  Level Cleveland Center
03:13PM 41.3611 -83.7703 118° Southeast 482 555 39,000  Level Cleveland Center
03:14PM 41.3028 -83.6128 116° Southeast 482 555 39,000  Level Cleveland Center
03:15PM 41.2422 -83.4581 117° Southeast 477 549 39,000  Level Cleveland Center
03:16PM 41.1814 -83.2953 116° Southeast 482 555 39,000  Level Cleveland Center
03:17PM 41.1306 -83.1581 116° Southeast 475 547 39,000  Level Cleveland Center
03:18PM 41.0672 -82.9986 118° Southeast 480 552 39,000  Level Cleveland Center
03:20PM 40.9350 -82.6575 117° Southeast 482 555 39,000  Level Indianapolis Center
03:21PM 40.8728 -82.5017 118° Southeast 479 551 39,000  Level Indianapolis Center
03:22PM 40.8117 -82.3464 117° Southeast 476 548 39,000  Level Indianapolis Center
03:23PM 40.7411 -82.1658 117° Southeast 474 545 39,000  Level Indianapolis Center
03:24PM 40.6783 -82.0131 118° Southeast 472 543 39,000  Level Indianapolis Center
03:25PM 40.6450 -81.9294 118° Southeast 473 544 39,000  Level Cleveland Center
03:26PM 40.5800 -81.7750 119° Southeast 498 573 39,000  Level Cleveland Center
03:27PM 40.5211 -81.6236 117° Southeast 488 562 39,000  Level Cleveland Center
03:28PM 40.4556 -81.4617 118° Southeast 485 558 39,000  Level Cleveland Center
03:29PM 40.4025 -81.3219 116° Southeast 485 558 39,000  Level Cleveland Center
03:30PM 40.3347 -81.1633 119° Southeast 485 558 39,000  Level Cleveland Center
03:31PM 40.2603 -80.9831 118° Southeast 491 565 39,000  Level Cleveland Center
03:32PM 40.1961 -80.8250 118° Southeast 497 572 39,000 -300 Level Cleveland Center
03:33PM 40.1275 -80.6617 119° Southeast 497 572 38,400 -780 Descending Cleveland Center
03:34PM 40.0589 -80.5044 120° Southeast 497 572 37,500 -960 Descending Cleveland Center
03:35PM 39.9919 -80.3447 119° Southeast 503 579 36,500 -960 Descending Cleveland Center
03:36PM 39.9247 -80.1906 120° Southeast 503 579 35,600 -900 Descending Cleveland Center
03:37PM 39.8617 -80.0286 117° Southeast 498 573 34,700 -960 Descending Cleveland Center
03:39PM 39.7811 -79.6444 105° East 500 575 32,600 -1,140 Descending Washington Center
03:40PM 39.7431 -79.4642 105° East 506 582 31,000 -2,340 Descending Washington Center
03:41PM 39.7050 -79.2894 106° East 506 582 28,000 -2,880 Descending Washington Center
03:42PM 39.6683 -79.1178 105° East 501 577 25,300 -1,500 Descending Washington Center
03:43PM 39.6336 -78.9517 105° East 490 564 25,000 -180 Descending Washington Center
03:44PM 39.5922 -78.7881 108° East 483 556 25,000 -1,020 Level Washington Center
03:45PM 39.5550 -78.6089 105° East 478 550 23,000 -2,220 Descending Washington Center
03:46PM 39.5231 -78.4703 107° East 453 521 20,600 -2,700 Descending Washington Center
03:47PM 39.4872 -78.3047 106° East 443 510 17,700 -2,640 Descending Washington Center
03:48PM 39.4569 -78.1692 106° East 436 502 15,400 -1,380 Descending Washington Center
03:49PM 39.4261 -78.0419 107° East 419 482 15,000 -240 Descending Washington Center
03:50PM 39.4256 -77.8619 90° East 419 482 15,000 -240 Level Washington Center
03:51PM 39.4322 -77.7250 86° East 424 488 14,600 -1,440 Descending Washington Center
03:52PM 39.4392 -77.5639 87° East 409 471 12,200 -1,680 Descending Washington Center
03:53PM 39.4433 -77.4406 87° East 393 452 11,300 -600 Descending Washington Center
03:54PM 39.4667 -77.2667 80° East 330 380 11,000 -300 Descending Potomac TRACON
03:55PM 39.4667 -77.1500 90° East 321 369 10,700 -1,080 Descending Potomac TRACON
03:56PM 39.4833 -77.0500 78° East 313 360 8,900 -1,740 Descending Potomac TRACON
03:57PM 39.4667 -76.9500 102° East 290 334 7,200 -1,800 Descending Potomac TRACON
03:58PM 39.4000 -76.8833 142° Southeast 270 311 5,400 -1,620 Descending Potomac TRACON
03:59PM 39.3333 -76.9000 191° South 249 287 4,000 -1,440 Descending Potomac TRACON
04:00PM 39.2833 -76.9000 180° South 255 293 2,700 -1,080 Descending Potomac TRACON
04:01PM 39.2000 -76.9000 180° South 238 274 2,000 -360 Descending Potomac TRACON
04:02PM 39.1833 -76.8333 108° East 207 238 2,000 -300 Level Potomac TRACON
04:03PM 39.1833 -76.7667 90° East 163 188 1,400 -660 Descending Potomac TRACON
04:04PM 39.1833 -76.7167 90° East 131 151 700 -720 Descending Potomac TRACON
04:06PM 39.1667 -76.6667 142° Southeast  Level FlightAware Approximate
04:13PM 39.1754 -76.6683 142° Southeast  Level Estimated
04:14PM 39.1754 -76.6683 142° Southeast  Level Estimated
04:15PM 39.1754 -76.6683 142° Southeast  Level Estimated
04:16PM 39.1754 -76.6683 142° Southeast  Level Estimated
04:17PM 39.1754 -76.6683 142° Southeast  Level Estimated